Time;durP1;ratioP1;P1;durP2;ratioP2;P2;SDS_P1;SDS_P2;PMS_P1;PMS_P2;Temp;Humidity;BMP_temperature;BMP_pressure;BME280_temperature;BME280_humidity;BME280_pressure;Samples;Min_cycle;Max_cycle;Signal;HPM_P1;HPM_P2
2022/09/14 00:00:40;;;;;;;7.53;2.80;;;;;;;17.41;100.00;100749.97;5235567;28;20059;-73
2022/09/14 00:03:13;;;;;;;8.07;2.40;;;;;;;17.27;100.00;100748.56;5218192;28;20017;-73
2022/09/14 00:05:44;;;;;;;11.33;2.90;;;;;;;17.16;100.00;100742.44;5217811;28;20033;-72
2022/09/14 00:08:16;;;;;;;7.77;2.50;;;;;;;17.24;100.00;100719.75;5235084;28;20123;-72
2022/09/14 00:10:47;;;;;;;10.47;2.33;;;;;;;17.25;100.00;100724.06;5235543;28;20025;-73
2022/09/14 00:13:18;;;;;;;14.93;3.50;;;;;;;17.19;100.00;100712.22;5217616;28;20029;-72
2022/09/14 00:15:50;;;;;;;8.77;2.60;;;;;;;17.32;100.00;100719.88;5235688;28;20622;-73
2022/09/14 00:18:23;;;;;;;10.23;2.33;;;;;;;17.26;100.00;100720.44;5235614;28;20033;-72
2022/09/14 00:21:02;;;;;;;7.77;3.13;;;;;;;17.35;100.00;100719.59;5235212;28;20392;-72
2022/09/14 00:23:36;;;;;;;6.23;2.37;;;;;;;17.08;100.00;100720.25;5234324;28;20499;-72
2022/09/14 00:26:11;;;;;;;6.07;2.17;;;;;;;17.22;100.00;100730.47;5235382;28;20034;-72
2022/09/14 00:28:45;;;;;;;11.17;2.70;;;;;;;17.11;100.00;100726.16;5235177;28;20027;-73
2022/09/14 00:31:17;;;;;;;9.07;2.42;;;;;;;17.21;100.00;100727.97;5235321;28;20025;-73
2022/09/14 00:33:50;;;;;;;8.50;2.93;;;;;;;16.96;100.00;100730.13;5235343;28;20105;-72
2022/09/14 00:36:25;;;;;;;7.73;2.50;;;;;;;17.00;100.00;100726.25;5235121;28;20026;-72
2022/09/14 00:38:56;;;;;;;10.77;2.60;;;;;;;16.78;100.00;100701.69;5234529;28;20029;-73
2022/09/14 00:41:33;;;;;;;9.67;2.70;;;;;;;17.05;100.00;100718.75;5216517;28;20083;-73
2022/09/14 00:44:06;;;;;;;8.57;2.87;;;;;;;17.04;100.00;100707.31;5216244;28;20029;-73
2022/09/14 00:46:43;;;;;;;9.03;2.40;;;;;;;16.89;100.00;100708.69;5234623;28;20660;-73
2022/09/14 00:49:24;;;;;;;9.73;2.83;;;;;;;16.86;100.00;100704.50;5235414;28;20380;-72
2022/09/14 00:52:16;;;;;;;12.53;3.23;;;;;;;16.97;100.00;100700.06;5235085;28;20060;-73
2022/09/14 00:54:52;;;;;;;7.63;2.87;;;;;;;16.73;100.00;100688.91;5215919;28;20075;-72
2022/09/14 00:57:26;;;;;;;9.33;3.57;;;;;;;16.69;100.00;100688.34;5234649;28;20033;-73
2022/09/14 00:59:58;;;;;;;;;;;;;;;17.21;100.00;100686.44;5234717;28;20021;-72
2022/09/14 01:02:29;;;;;;;11.17;2.40;;;;;;;16.50;100.00;100667.13;5234574;28;20440;-73
2022/09/14 01:05:01;;;;;;;11.27;3.33;;;;;;;16.61;100.00;100663.53;5234623;28;20025;-73
2022/09/14 01:07:51;;;;;;;11.47;2.87;;;;;;;16.79;100.00;100672.47;5233987;28;20112;-73
2022/09/14 01:10:28;;;;;;;10.27;3.23;;;;;;;16.83;100.00;100666.91;5216614;28;20120;-73
2022/09/14 01:13:27;;;;;;;8.27;2.60;;;;;;;16.83;100.00;100658.97;5234125;28;20037;-73
2022/09/14 01:16:37;;;;;;;8.47;3.13;;;;;;;16.63;100.00;100654.53;5234545;28;20036;-73
2022/09/14 01:19:19;;;;;;;6.83;2.23;;;;;;;16.57;100.00;100649.75;5146981;28;20052;-72
2022/09/14 01:21:55;;;;;;;9.23;2.77;;;;;;;16.56;100.00;100646.28;5220236;28;20055;-73
2022/09/14 01:24:33;;;;;;;7.67;2.80;;;;;;;16.71;100.00;100653.81;5234877;28;20033;-72
2022/09/14 01:27:22;;;;;;;11.43;3.13;;;;;;;16.57;100.00;100663.81;5234813;28;20033;-73
2022/09/14 01:30:05;;;;;;;5.17;2.27;;;;;;;16.69;100.00;100656.59;5216659;28;20033;-73
2022/09/14 01:32:45;;;;;;;9.67;3.33;;;;;;;16.50;100.00;100654.75;5234036;28;20548;-71
2022/09/14 01:35:26;;;;;;;7.20;2.47;;;;;;;16.59;100.00;100668.97;5216476;28;20116;-75
2022/09/14 01:38:03;;;;;;;8.43;2.50;;;;;;;16.51;100.00;100658.25;5233518;28;20056;-74
2022/09/14 01:40:42;;;;;;;9.83;2.33;;;;;;;16.57;100.00;100665.63;5233420;28;20510;-75
2022/09/14 01:43:23;;;;;;;11.87;3.33;;;;;;;16.48;100.00;100658.53;5234349;28;20036;-73
2022/09/14 01:46:03;;;;;;;7.10;2.70;;;;;;;16.47;100.00;100659.47;5233762;28;20033;-73
2022/09/14 01:48:40;;;;;;;10.20;2.57;;;;;;;16.48;100.00;100654.06;5216096;28;20029;-73
2022/09/14 01:51:16;;;;;;;9.37;2.80;;;;;;;16.64;100.00;100642.97;5234627;28;20510;-73
2022/09/14 01:54:08;;;;;;;10.83;2.60;;;;;;;16.55;100.00;100646.41;5232267;28;20117;-74
2022/09/14 01:56:52;;;;;;;5.67;2.77;;;;;;;16.55;100.00;100649.06;5215821;28;20029;-72
2022/09/14 01:59:26;;;;;;;;;;;;;;;16.86;100.00;100651.59;5216360;28;20423;-73
2022/09/14 02:02:07;;;;;;;10.77;3.13;;;;;;;16.48;100.00;100642.66;5233519;28;20587;-73
2022/09/14 02:04:48;;;;;;;11.93;2.77;;;;;;;16.25;100.00;100638.41;5234010;28;20080;-73
2022/09/14 02:07:19;;;;;;;7.47;2.43;;;;;;;16.29;100.00;100628.41;5214744;28;20025;-73
2022/09/14 02:09:52;;;;;;;9.57;2.60;;;;;;;16.09;100.00;100647.69;5233561;28;20021;-73
2022/09/14 02:12:24;;;;;;;12.20;2.53;;;;;;;16.21;100.00;100640.47;5215398;28;20095;-73
2022/09/14 02:14:55;;;;;;;11.73;4.23;;;;;;;16.18;100.00;100638.13;5233744;28;20105;-72
2022/09/14 02:17:28;;;;;;;9.20;2.57;;;;;;;16.03;100.00;100650.84;5233315;28;20029;-73
2022/09/14 02:20:02;;;;;;;9.67;2.40;;;;;;;16.10;100.00;100645.88;5233969;28;20480;-72
2022/09/14 02:22:34;;;;;;;8.13;2.43;;;;;;;16.19;100.00;100644.25;5214407;28;20495;-73
2022/09/14 02:25:06;;;;;;;9.97;3.37;;;;;;;16.14;100.00;100647.28;5233605;28;20029;-73
2022/09/14 02:27:37;;;;;;;10.73;2.40;;;;;;;16.07;100.00;100640.88;5215108;28;20495;-73
2022/09/14 02:30:09;;;;;;;6.47;2.00;;;;;;;16.06;100.00;100647.09;5233845;28;20108;-72
2022/09/14 02:32:56;;;;;;;10.73;2.27;;;;;;;16.12;100.00;100651.88;5233123;28;20029;-73
2022/09/14 02:35:36;;;;;;;9.90;3.30;;;;;;;16.02;100.00;100648.34;5233240;28;20420;-73
2022/09/14 02:38:28;;;;;;;11.33;3.30;;;;;;;16.06;100.00;100650.59;5214767;28;20039;-73
2022/09/14 02:41:09;;;;;;;7.00;2.63;;;;;;;15.93;100.00;100648.16;5233100;28;20052;-73
2022/09/14 02:44:01;;;;;;;7.47;2.80;;;;;;;15.99;100.00;100649.44;5214637;28;20028;-73
2022/09/14 02:46:43;;;;;;;9.10;2.57;;;;;;;15.87;100.00;100651.31;5215651;28;20037;-73
2022/09/14 02:49:41;;;;;;;8.03;2.57;;;;;;;15.95;100.00;100643.56;5233107;28;20133;-73
2022/09/14 02:52:38;;;;;;;8.23;3.13;;;;;;;16.02;100.00;100641.28;5232273;28;20044;-72
2022/09/14 02:55:16;;;;;;;10.83;2.80;;;;;;;15.83;100.00;100626.16;5215455;28;20030;-74
2022/09/14 02:58:07;;;;;;;9.80;2.70;;;;;;;16.05;100.00;100642.81;5232794;28;20043;-72
2022/09/14 03:00:44;;;;;;;12.13;2.90;;;;;;;15.84;100.00;100630.44;5215598;28;20087;-73
2022/09/14 03:03:19;;;;;;;7.97;2.23;;;;;;;15.87;100.00;100631.97;5232769;28;20076;-72
2022/09/14 03:05:50;;;;;;;10.63;2.77;;;;;;;15.77;100.00;100626.66;5215954;28;20080;-73
2022/09/14 03:08:22;;;;;;;11.30;2.67;;;;;;;15.79;100.00;100624.72;5217992;28;20045;-73
2022/09/14 03:10:54;;;;;;;6.57;1.97;;;;;;;15.79;100.00;100627.38;5237152;28;20025;-74
2022/09/14 03:13:25;;;;;;;11.30;3.33;;;;;;;15.75;100.00;100618.03;5236684;28;20567;-74
2022/09/14 03:15:56;;;;;;;10.43;3.00;;;;;;;15.75;100.00;100621.50;5237356;28;20108;-73
2022/09/14 03:18:28;;;;;;;12.93;3.13;;;;;;;15.90;100.00;100623.81;5236703;28;20499;-73
2022/09/14 03:21:08;;;;;;;8.90;3.00;;;;;;;15.73;100.00;100608.44;5236680;28;20038;-73
2022/09/14 03:23:51;;;;;;;9.07;2.80;;;;;;;15.85;100.00;100616.28;5235719;28;20033;-71
2022/09/14 03:26:24;;;;;;;10.80;2.90;;;;;;;15.67;100.00;100619.53;5236849;28;20068;-74
2022/09/14 03:28:58;;;;;;;10.73;3.35;;;;;;;15.87;100.00;100614.34;5236513;28;20037;-74
2022/09/14 03:31:30;;;;;;;9.07;2.60;;;;;;;15.65;100.00;100607.44;5236848;28;20025;-73
2022/09/14 03:34:01;;;;;;;7.03;2.63;;;;;;;15.59;100.00;100599.06;5236835;28;20582;-73
2022/09/14 03:36:33;;;;;;;8.27;2.60;;;;;;;15.69;100.00;100606.22;5236478;28;20029;-73
2022/09/14 03:39:04;;;;;;;10.37;2.83;;;;;;;15.56;100.00;100595.84;5217467;28;20081;-73
2022/09/14 03:41:35;;;;;;;10.03;3.30;;;;;;;15.61;100.00;100585.75;5235912;28;20041;-74
2022/09/14 03:44:08;;;;;;;11.53;2.80;;;;;;;15.64;100.00;100592.56;5218705;28;20079;-73
2022/09/14 03:46:40;;;;;;;8.47;2.63;;;;;;;15.60;100.00;100587.53;5218043;28;20041;-72
2022/09/14 03:49:11;;;;;;;12.97;3.10;;;;;;;15.65;100.00;100579.25;5236227;28;20041;-73
2022/09/14 03:51:42;;;;;;;9.17;3.00;;;;;;;15.45;100.00;100584.41;5235246;28;20030;-73
2022/09/14 03:54:13;;;;;;;6.67;2.20;;;;;;;15.65;100.00;100583.69;5217846;28;20029;-73
2022/09/14 03:56:45;;;;;;;10.37;2.80;;;;;;;15.51;100.00;100579.56;5235804;28;20038;-72
2022/09/14 03:59:16;;;;;;;7.13;2.50;;;;;;;15.64;100.00;100582.81;5217962;28;20071;-73
2022/09/14 04:01:47;;;;;;;7.83;2.37;;;;;;;15.58;100.00;100567.53;5235149;28;20037;-73
2022/09/14 04:04:18;;;;;;;9.83;2.63;;;;;;;15.53;100.00;100572.38;5217750;28;20066;-73
2022/09/14 04:06:50;;;;;;;8.63;2.37;;;;;;;15.40;100.00;100570.78;5233785;28;20041;-74
2022/09/14 04:09:21;;;;;;;7.23;2.30;;;;;;;15.38;100.00;100577.16;5234784;28;20036;-73
2022/09/14 04:11:52;;;;;;;8.67;2.20;;;;;;;15.43;100.00;100567.88;5235980;28;20041;-77
2022/09/14 04:14:24;;;;;;;9.80;2.70;;;;;;;15.63;100.00;100570.63;5235768;28;20029;-73
2022/09/14 04:16:55;;;;;;;4.57;1.93;;;;;;;15.54;100.00;100569.59;5218662;28;20124;-76
2022/09/14 04:19:27;;;;;;;8.13;2.73;;;;;;;15.44;100.00;100566.91;5217039;28;20029;-75
2022/09/14 04:21:58;;;;;;;7.70;2.27;;;;;;;15.47;100.00;100571.06;5233843;28;20480;-74
2022/09/14 04:24:29;;;;;;;5.87;2.43;;;;;;;15.32;100.00;100579.34;5235348;28;20093;-76
2022/09/14 04:27:01;;;;;;;10.73;2.83;;;;;;;15.47;100.00;100566.66;5217442;28;20480;-76
2022/09/14 04:29:32;;;;;;;7.23;2.17;;;;;;;15.36;100.00;100566.72;5235249;28;20055;-76
2022/09/14 04:32:04;;;;;;;7.07;2.40;;;;;;;15.32;100.00;100562.69;5235813;28;20075;-75
2022/09/14 04:34:35;;;;;;;9.53;2.90;;;;;;;15.18;100.00;100554.13;5217009;28;20061;-72
2022/09/14 04:37:06;;;;;;;9.83;2.27;;;;;;;15.21;100.00;100566.22;5234354;28;20027;-72
2022/09/14 04:39:38;;;;;;;13.77;2.90;;;;;;;15.24;100.00;100561.53;5233952;28;20132;-74
2022/09/14 04:42:09;;;;;;;8.87;3.10;;;;;;;15.04;100.00;100560.56;5235109;28;20028;-75
2022/09/14 04:44:40;;;;;;;8.87;2.80;;;;;;;15.14;100.00;100539.53;5216271;28;20132;-74
2022/09/14 04:47:12;;;;;;;10.10;2.67;;;;;;;15.21;100.00;100561.78;5234581;28;20682;-75
2022/09/14 04:49:43;;;;;;;6.47;2.30;;;;;;;15.23;100.00;100551.94;5234779;28;20092;-74
2022/09/14 04:52:14;;;;;;;6.57;2.00;;;;;;;15.15;100.00;100545.66;5233664;28;20029;-77
2022/09/14 04:54:46;;;;;;;12.00;2.43;;;;;;;15.13;100.00;100553.69;5234356;28;20063;-74
2022/09/14 04:57:17;;;;;;;7.87;2.53;;;;;;;15.15;100.00;100540.38;5233341;28;20036;-73
2022/09/14 04:59:48;;;;;;;13.13;2.90;;;;;;;15.20;100.00;100539.00;5233523;28;20123;-74
2022/09/14 05:02:19;;;;;;;11.63;2.40;;;;;;;15.11;100.00;100537.16;5232499;28;20037;-74
2022/09/14 05:04:51;;;;;;;8.50;2.00;;;;;;;14.94;100.00;100539.38;5233887;28;20029;-74
2022/09/14 05:07:22;;;;;;;7.43;2.10;;;;;;;14.81;100.00;100530.84;5218847;28;20087;-73
2022/09/14 05:09:54;;;;;;;7.37;2.23;;;;;;;14.94;100.00;100534.13;5232713;28;20029;-73
2022/09/14 05:12:25;;;;;;;9.20;2.30;;;;;;;14.93;100.00;100537.72;5234038;28;20037;-73
2022/09/14 05:14:56;;;;;;;8.13;2.13;;;;;;;15.02;100.00;100530.00;5236270;28;20039;-74
2022/09/14 05:17:28;;;;;;;8.53;2.27;;;;;;;14.92;100.00;100530.78;5232449;28;20091;-73
2022/09/14 05:19:59;;;;;;;11.13;2.67;;;;;;;15.06;100.00;100528.78;5232515;28;20396;-74
2022/09/14 05:22:30;;;;;;;7.10;2.40;;;;;;;15.02;100.00;100524.72;5231724;28;20466;-74
2022/09/14 05:25:02;;;;;;;10.00;2.83;;;;;;;15.02;100.00;100524.72;5233356;28;20036;-74
2022/09/14 05:27:33;;;;;;;9.77;2.43;;;;;;;15.03;100.00;100519.31;5231960;28;20061;-74
2022/09/14 05:30:05;;;;;;;14.13;2.73;;;;;;;14.89;100.00;100538.94;5229450;28;20029;-74
2022/09/14 05:32:36;;;;;;;8.57;2.43;;;;;;;14.86;100.00;100526.88;5232266;28;20044;-73
2022/09/14 05:35:08;;;;;;;9.90;2.40;;;;;;;14.89;100.00;100517.84;5216540;28;20025;-74
2022/09/14 05:37:39;;;;;;;9.13;2.27;;;;;;;15.03;100.00;100536.97;5231538;28;20048;-74
2022/09/14 05:40:10;;;;;;;7.33;2.33;;;;;;;14.96;100.00;100544.53;5233856;28;20523;-73
2022/09/14 05:42:41;;;;;;;8.20;3.20;;;;;;;15.21;100.00;100534.56;5238576;28;20041;-75
2022/09/14 05:45:13;;;;;;;14.63;3.03;;;;;;;15.09;100.00;100542.56;5234165;28;20025;-75
2022/09/14 05:47:44;;;;;;;11.10;3.53;;;;;;;15.15;100.00;100548.28;5234041;28;20063;-74
2022/09/14 05:50:15;;;;;;;12.20;2.93;;;;;;;15.17;100.00;100544.53;5233180;28;20029;-74
2022/09/14 05:52:47;;;;;;;7.80;2.53;;;;;;;15.09;100.00;100547.00;5232558;28;20103;-74
2022/09/14 05:55:19;;;;;;;10.10;2.70;;;;;;;15.14;100.00;100543.94;5233129;28;20472;-73
2022/09/14 05:57:50;;;;;;;10.67;2.53;;;;;;;15.08;100.00;100548.78;5215604;28;20075;-75
2022/09/14 06:00:22;;;;;;;9.40;2.70;;;;;;;15.00;100.00;100549.44;5216871;28;20179;-76
2022/09/14 06:02:54;;;;;;;9.33;2.53;;;;;;;15.06;100.00;100542.78;5231866;28;20105;-75
2022/09/14 06:05:25;;;;;;;8.50;2.73;;;;;;;14.98;100.00;100543.44;5232341;28;20112;-75
2022/09/14 06:07:56;;;;;;;14.20;3.30;;;;;;;15.06;100.00;100553.34;5210697;28;20044;-75
2022/09/14 06:10:27;;;;;;;7.33;2.27;;;;;;;15.00;100.00;100552.06;5234830;28;20025;-75
2022/09/14 06:12:59;;;;;;;8.67;3.37;;;;;;;14.92;100.00;100551.88;5214825;28;20030;-77
2022/09/14 06:15:32;;;;;;;7.63;2.10;;;;;;;15.07;100.00;100556.81;5230365;28;20030;-75
2022/09/14 06:18:04;;;;;;;8.38;2.85;;;;;;;15.23;100.00;100565.13;5215579;28;20096;-75
2022/09/14 06:20:35;;;;;;;7.53;2.60;;;;;;;15.00;100.00;100564.41;5239287;28;20025;-74
2022/09/14 06:23:06;;;;;;;10.57;3.17;;;;;;;15.04;100.00;100559.72;5224428;28;20677;-74
2022/09/14 06:25:37;;;;;;;12.23;4.10;;;;;;;15.07;100.00;100564.72;5234230;28;20542;-74
2022/09/14 06:28:09;;;;;;;7.40;2.70;;;;;;;14.92;100.00;100566.88;5231513;28;20080;-78
2022/09/14 06:30:43;;;;;;;8.57;2.80;;;;;;;14.87;100.00;100552.25;5220820;28;20524;-74
2022/09/14 06:33:16;;;;;;;10.10;3.33;;;;;;;14.84;100.00;100554.31;5208320;28;20026;-74
2022/09/14 06:35:55;;;;;;;8.90;3.07;;;;;;;14.94;100.00;100557.84;5228867;28;20022;-74
2022/09/14 06:38:28;;;;;;;7.93;2.67;;;;;;;14.87;100.00;100561.97;5226749;28;20029;-74
2022/09/14 06:41:01;;;;;;;8.90;3.20;;;;;;;14.87;100.00;100551.44;5230125;28;20068;-74
2022/09/14 06:43:35;;;;;;;8.98;3.17;;;;;;;14.95;100.00;100553.41;5226406;28;20463;-74
2022/09/14 06:46:18;;;;;;;7.70;2.67;;;;;;;15.00;100.00;100544.16;5217737;28;20099;-73
2022/09/14 06:48:56;;;;;;;8.17;2.57;;;;;;;14.95;100.00;100543.72;5232709;28;20029;-73
2022/09/14 06:51:33;;;;;;;7.07;3.03;;;;;;;14.75;100.00;100547.94;5216573;28;20049;-74
2022/09/14 06:54:05;;;;;;;7.87;2.27;;;;;;;14.81;100.00;100539.59;5219097;28;20045;-73
2022/09/14 06:56:38;;;;;;;5.67;2.40;;;;;;;14.74;100.00;100538.38;5237108;28;20032;-73
2022/09/14 06:59:12;;;;;;;5.03;2.40;;;;;;;14.66;100.00;100522.38;5236674;28;20056;-73
2022/09/14 07:01:45;;;;;;;7.60;2.20;;;;;;;14.54;100.00;100527.69;5236237;28;20449;-75
2022/09/14 07:04:16;;;;;;;9.30;2.57;;;;;;;14.60;100.00;100532.47;5219608;28;20025;-75
2022/09/14 07:06:49;;;;;;;5.37;2.50;;;;;;;14.63;100.00;100531.34;5217378;28;20037;-75
2022/09/14 07:09:20;;;;;;;8.83;2.87;;;;;;;14.63;100.00;100521.66;5237121;28;20374;-75
2022/09/14 07:11:52;;;;;;;6.23;2.47;;;;;;;14.60;100.00;100511.38;5237014;28;20025;-73
2022/09/14 07:14:23;;;;;;;10.47;2.37;;;;;;;14.49;100.00;100528.06;5236766;28;20074;-74
2022/09/14 07:16:55;;;;;;;8.10;2.77;;;;;;;14.41;100.00;100517.31;5236242;28;20037;-73
2022/09/14 07:19:26;;;;;;;8.00;3.37;;;;;;;14.63;100.00;100518.19;5236504;28;20044;-76
2022/09/14 07:21:57;;;;;;;5.80;2.30;;;;;;;14.66;100.00;100519.75;5236247;28;20514;-75
2022/09/14 07:24:28;;;;;;;6.27;2.77;;;;;;;14.50;100.00;100521.00;5236125;28;20087;-74
2022/09/14 07:27:01;;;;;;;6.67;2.80;;;;;;;14.52;100.00;100519.91;5236847;28;20108;-74
2022/09/14 07:29:32;;;;;;;8.87;2.93;;;;;;;14.45;100.00;100510.81;5239174;28;20038;-74
2022/09/14 07:32:04;;;;;;;8.93;3.47;;;;;;;14.65;100.00;100513.63;5238871;28;20091;-74
2022/09/14 07:34:35;;;;;;;13.83;4.00;;;;;;;14.58;100.00;100523.00;5236415;28;20112;-74
2022/09/14 07:37:06;;;;;;;7.13;3.03;;;;;;;14.62;100.00;100519.16;5235892;28;20196;-74
2022/09/14 07:39:37;;;;;;;10.70;3.37;;;;;;;14.67;100.00;100527.53;5235782;28;20107;-74
2022/09/14 07:42:09;;;;;;;8.77;3.20;;;;;;;14.70;100.00;100518.50;5218568;28;20107;-74
2022/09/14 07:44:40;;;;;;;10.10;2.97;;;;;;;14.55;100.00;100521.47;5235900;28;20037;-74
2022/09/14 07:47:11;;;;;;;9.10;3.07;;;;;;;14.78;100.00;100525.78;5235670;28;20033;-74
2022/09/14 07:49:42;;;;;;;4.73;3.00;;;;;;;14.64;100.00;100506.69;5235378;28;20500;-74
2022/09/14 07:52:14;;;;;;;5.77;2.90;;;;;;;14.76;100.00;100513.59;5234718;28;20457;-74
2022/09/14 07:54:45;;;;;;;7.93;3.47;;;;;;;14.77;100.00;100506.50;5236178;28;20029;-74
2022/09/14 07:57:17;;;;;;;6.83;3.03;;;;;;;14.75;100.00;100517.16;5236021;28;20076;-74
2022/09/14 07:59:48;;;;;;;7.83;2.87;;;;;;;14.69;100.00;100516.84;5217721;28;20139;-74
2022/09/14 08:02:22;;;;;;;6.07;2.63;;;;;;;14.73;100.00;100507.72;5218479;28;20036;-74
2022/09/14 08:04:53;;;;;;;8.32;3.10;;;;;;;14.72;100.00;100509.53;5236055;28;20492;-74
2022/09/14 08:07:24;;;;;;;8.00;3.00;;;;;;;14.82;100.00;100524.63;5234773;28;20127;-75
2022/09/14 08:09:56;;;;;;;7.33;2.87;;;;;;;14.76;100.00;100516.22;5235513;28;20116;-74
2022/09/14 08:12:27;;;;;;;8.47;4.17;;;;;;;14.67;100.00;100497.69;5235798;28;20029;-74
2022/09/14 08:14:58;;;;;;;6.47;2.93;;;;;;;14.90;100.00;100514.25;5235824;28;20041;-74
2022/09/14 08:17:29;;;;;;;6.90;3.27;;;;;;;14.85;100.00;100508.53;5235222;28;20033;-74
2022/09/14 08:20:01;;;;;;;8.07;2.90;;;;;;;14.79;100.00;100507.22;5235918;28;20044;-74
2022/09/14 08:22:33;;;;;;;7.17;2.53;;;;;;;14.65;100.00;100511.00;5216531;28;20041;-74
2022/09/14 08:25:05;;;;;;;8.43;3.17;;;;;;;14.90;100.00;100511.63;5235726;28;20380;-74
2022/09/14 08:27:36;;;;;;;10.07;4.17;;;;;;;14.80;100.00;100515.97;5234888;28;20038;-74
2022/09/14 08:30:09;;;;;;;7.43;2.83;;;;;;;14.95;100.00;100509.44;5217929;28;20388;-75
2022/09/14 08:32:40;;;;;;;12.47;3.67;;;;;;;15.00;100.00;100501.97;5235164;28;20036;-75
2022/09/14 08:35:12;;;;;;;8.00;3.53;;;;;;;14.86;100.00;100507.56;5217896;28;20488;-74
2022/09/14 08:37:43;;;;;;;7.93;3.10;;;;;;;14.87;100.00;100511.88;5234081;28;20037;-74
2022/09/14 08:40:16;;;;;;;7.67;3.30;;;;;;;14.86;100.00;100520.75;5234756;28;20050;-74
2022/09/14 08:42:49;;;;;;;7.17;3.23;;;;;;;14.92;100.00;100524.69;5234896;28;20116;-75
2022/09/14 08:45:22;;;;;;;7.87;3.13;;;;;;;15.07;100.00;100522.53;5217007;28;20463;-75
2022/09/14 08:47:56;;;;;;;8.53;3.77;;;;;;;15.04;100.00;100518.38;5235142;28;20056;-74
2022/09/14 08:50:29;;;;;;;10.75;4.18;;;;;;;15.00;100.00;100519.59;5216690;28;20326;-75
2022/09/14 08:53:00;;;;;;;9.93;4.07;;;;;;;14.96;100.00;100516.38;5234415;28;20500;-75
2022/09/14 08:55:47;;;;;;;8.50;3.87;;;;;;;15.18;100.00;100529.56;5216259;28;20031;-75
2022/09/14 08:58:44;;;;;;;12.50;4.53;;;;;;;15.08;100.00;100518.97;5217056;28;20116;-75
2022/09/14 09:01:35;;;;;;;7.90;3.60;;;;;;;15.24;100.00;100534.28;5235119;28;20048;-75
2022/09/14 09:04:38;;;;;;;7.47;3.93;;;;;;;15.21;100.00;100527.50;5216368;28;20077;-75
2022/09/14 09:07:20;;;;;;;8.60;4.63;;;;;;;15.05;100.00;100530.59;5233863;28;20037;-74
2022/09/14 09:09:55;;;;;;;10.10;5.43;;;;;;;14.98;100.00;100518.88;5217003;28;20034;-75
2022/09/14 09:12:35;;;;;;;11.47;5.10;;;;;;;15.03;100.00;100521.97;5234414;28;20480;-74
2022/09/14 09:15:28;;;;;;;11.87;5.90;;;;;;;15.11;100.00;100519.50;5234959;28;20033;-74
2022/09/14 09:18:41;;;;;;;8.83;5.00;;;;;;;15.27;100.00;100523.50;5222708;28;20056;-74
2022/09/14 09:21:19;;;;;;;8.50;5.73;;;;;;;15.18;100.00;100513.72;5177906;28;20052;-74
2022/09/14 09:23:53;;;;;;;11.20;5.50;;;;;;;15.21;100.00;100513.47;5216743;28;20040;-74
2022/09/14 09:26:29;;;;;;;9.23;6.03;;;;;;;15.15;100.00;100516.63;5234495;28;20038;-74
2022/09/14 09:29:02;;;;;;;10.20;5.67;;;;;;;15.26;100.00;100520.97;5234263;28;20030;-74
2022/09/14 09:31:36;;;;;;;12.70;6.20;;;;;;;15.17;100.00;100512.06;5236797;28;20033;-74
2022/09/14 09:34:12;;;;;;;11.80;5.70;;;;;;;15.19;100.00;100515.38;5235932;28;20021;-74
2022/09/14 09:36:47;;;;;;;11.40;6.10;;;;;;;15.38;100.00;100509.38;5233349;28;20038;-74
2022/09/14 09:39:18;;;;;;;10.37;6.33;;;;;;;15.26;100.00;100507.78;5233304;28;20057;-74
2022/09/14 09:42:19;;;;;;;12.17;7.30;;;;;;;15.40;100.00;100502.16;5234292;28;20090;-74
2022/09/14 09:45:05;;;;;;;11.00;6.17;;;;;;;15.48;100.00;100504.97;5216132;28;20441;-74
2022/09/14 09:47:40;;;;;;;16.20;7.23;;;;;;;15.38;100.00;100514.66;5233242;28;20189;-74
2022/09/14 09:50:12;;;;;;;8.97;6.57;;;;;;;15.33;100.00;100520.34;5234441;28;20117;-74
2022/09/14 09:52:53;;;;;;;14.33;7.23;;;;;;;15.31;100.00;100518.78;5232853;28;20136;-74
2022/09/14 09:55:36;;;;;;;13.87;6.53;;;;;;;15.28;100.00;100516.41;5233832;28;20431;-74
2022/09/14 09:58:32;;;;;;;12.43;7.10;;;;;;;15.48;100.00;100512.88;5233776;28;20440;-74
2022/09/14 10:01:16;;;;;;;9.00;6.97;;;;;;;15.45;100.00;100510.53;5216196;28;20033;-74
2022/09/14 10:04:17;;;;;;;10.03;7.10;;;;;;;15.52;100.00;100500.25;5233279;28;20029;-73
2022/09/14 10:06:52;;;;;;;10.70;6.53;;;;;;;15.51;100.00;100506.53;5214547;28;20038;-75
2022/09/14 10:09:26;;;;;;;10.80;6.90;;;;;;;15.56;100.00;100511.41;5216906;28;20114;-75
2022/09/14 10:11:59;;;;;;;;;;;;;;;15.84;100.00;100511.63;5234509;28;20603;-74
2022/09/14 10:14:33;;;;;;;10.80;6.70;;;;;;;15.56;100.00;100508.75;5233045;28;19913;-74
2022/09/14 10:17:17;;;;;;;14.30;6.13;;;;;;;15.70;100.00;100512.84;5233890;28;20024;-73
2022/09/14 10:19:51;;;;;;;11.88;7.35;;;;;;;15.68;100.00;100509.50;5217804;28;20100;-76
2022/09/14 10:22:33;;;;;;;13.88;6.55;;;;;;;15.87;100.00;100514.00;5231679;28;20065;-75
2022/09/14 10:25:13;;;;;;;11.63;8.40;;;;;;;15.75;100.00;100513.28;5214579;28;20156;-73
2022/09/14 10:27:51;;;;;;;7.63;6.87;;;;;;;15.75;100.00;100513.28;5218510;28;20140;-73
2022/09/14 10:30:33;;;;;;;9.93;5.80;;;;;;;15.75;100.00;100510.63;5232971;28;20476;-75
2022/09/14 10:33:09;;;;;;;8.83;7.13;;;;;;;15.70;100.00;100507.56;5232620;28;20476;-76
2022/09/14 10:35:49;;;;;;;8.40;6.83;;;;;;;15.81;100.00;100509.25;5232456;28;20029;-75
2022/09/14 10:38:58;;;;;;;11.00;6.50;;;;;;;15.92;100.00;100516.22;5232395;28;20021;-75
2022/09/14 10:41:48;;;;;;;8.97;6.70;;;;;;;15.91;100.00;100512.75;5232176;28;20077;-75
2022/09/14 10:44:48;;;;;;;12.00;6.90;;;;;;;15.80;100.00;100505.78;5214650;28;20476;-75
2022/09/14 10:47:40;;;;;;;8.50;7.10;;;;;;;15.72;100.00;100498.53;5232513;28;20025;-75
2022/09/14 10:50:23;;;;;;;10.00;7.37;;;;;;;15.77;100.00;100502.56;5233051;28;20036;-73
2022/09/14 10:53:09;;;;;;;8.90;6.70;;;;;;;15.79;100.00;100506.75;5231996;28;20487;-73
2022/09/14 10:56:00;;;;;;;10.53;6.80;;;;;;;15.72;100.00;100511.75;5233277;28;20041;-75
2022/09/14 10:59:08;;;;;;;11.03;6.53;;;;;;;15.82;100.00;100503.84;5231756;28;20530;-76
2022/09/14 11:02:16;;;;;;;8.40;5.90;;;;;;;15.79;100.00;100512.03;5234580;28;20465;-75
2022/09/14 11:05:06;;;;;;;7.57;6.27;;;;;;;15.75;100.00;100504.50;5237472;28;20492;-75
2022/09/14 11:07:50;;;;;;;12.37;6.13;;;;;;;15.73;100.00;100504.63;5231523;28;20029;-75
2022/09/14 11:10:34;;;;;;;10.40;6.53;;;;;;;15.93;100.00;100502.91;5232453;28;20409;-74
2022/09/14 11:13:26;;;;;;;6.38;5.40;;;;;;;15.88;100.00;100491.91;5233432;28;20029;-75
2022/09/14 11:16:17;;;;;;;10.57;5.40;;;;;;;15.85;100.00;100495.66;5233143;28;20492;-73
2022/09/14 11:19:14;;;;;;;12.37;4.53;;;;;;;15.79;100.00;100482.16;5214414;28;20136;-75
2022/09/14 11:21:57;;;;;;;8.50;5.70;;;;;;;15.70;100.00;100489.91;5210773;28;20120;-76
2022/09/14 11:25:19;;;;;;;7.53;3.53;;;;;;;15.79;100.00;100485.63;5232636;28;20121;-76
2022/09/14 11:27:55;;;;;;;10.40;4.90;;;;;;;15.58;100.00;100468.06;5200841;28;20049;-77
2022/09/14 11:30:36;;;;;;;6.37;4.23;;;;;;;15.64;100.00;100481.72;5218410;28;20376;-76
2022/09/14 11:33:19;;;;;;;6.43;4.40;;;;;;;15.58;100.00;100477.78;5236207;28;20813;-74
2022/09/14 11:36:02;;;;;;;8.60;4.20;;;;;;;15.75;100.00;100475.47;5234604;28;20480;-76
2022/09/14 11:38:41;;;;;;;7.67;4.40;;;;;;;15.64;100.00;100477.25;5235226;28;20507;-75
2022/09/14 11:41:18;;;;;;;5.10;3.20;;;;;;;15.70;100.00;100478.50;5218331;28;20330;-75
2022/09/14 11:44:05;;;;;;;8.50;3.27;;;;;;;15.65;100.00;100476.28;5236117;28;20116;-73
2022/09/14 11:46:44;;;;;;;4.87;3.30;;;;;;;15.59;100.00;100474.16;5217993;28;20021;-73
2022/09/14 11:49:18;;;;;;;8.53;3.10;;;;;;;15.60;100.00;100486.41;5235915;28;20100;-73
2022/09/14 11:51:54;;;;;;;4.95;2.92;;;;;;;15.70;100.00;100476.72;5235157;28;20052;-73
2022/09/14 11:54:26;;;;;;;5.83;3.10;;;;;;;15.61;100.00;100464.31;5218201;28;20671;-75
2022/09/14 11:57:00;;;;;;;3.77;2.70;;;;;;;15.69;100.00;100480.31;5235606;28;20026;-74